Terminal Aerodrome Forecast
Issued by NWS

Home | Current Version | Previous Version | Text Only | Print | Product List | Glossary On
Versions: 1 2 3 4 5 6 7 8 9 10 11 12 13 14 15 16 17 18 19 20 21 22 23 24
000
FTUS43 KLOT 112049 AAA
TAFDPA
TAF AMD
KDPA 112049Z 1121/1218 12006KT P6SM BKN120
     FM112200 03006KT P6SM BKN080
     FM112300 35013G19KT 4SM -SHSN OVC035
      TEMPO 1123/1201 1 1/2SM -SHSN OVC015
     FM120300 33018G30KT P6SM BKN030
     FM121300 32015G22KT P6SM SCT035 SCT250=

USA.gov is the U.S. government's official web portal to all federal, state and local government web resources and services.